メインページ
METAR-TAF:

METAR-TAF

空港 :

バグダード国際空港

バグダード, イラク

緯度: 33-15-45N, 経度: 44-14-04E, 海抜: 35m

現時点の気象観測

当レポートは15分前の06:00(UTC)に作成
西の風 14kt
気温 14°C
湿度 82%
気圧 1011 hPa
視程10km以上
高度3000ftの千切れ雲あり

METAR: ORBI 200600Z 27014KT 9999 BKN030 14/11 Q1011 TEMPO -TS SHRA FEW030CB

時間: 09:15 (06:15 UTC)

予報

当レポートは2時間15分前の04:00(UTC)に作成
予報は20日の 06時(UTC)から 21日の 06時(UTC)まで有効
北西の風 8kt
視程: 6000m
高度3000ftの雲は散在している
高度8000ftの雲は散在している
20日の 06時(UTC)から 20日の 08時(UTC)まで一時的に
高度2500ftの雲はほとんどない, 積乱雲.
激しい雷雨, (弱い) にわか雨
20日の 14時(UTC)から 20日の 16時(UTC)まで徐々に

TAF: ORBI 200400Z 2006/2106 32008KT 6000 SCT030 SCT080 TEMPO 2006/2008 -TS SHRA FEW025CB BECMG 2014/2016 NSC

4,000以上の空港の気象観測と天気予報(METAR報とTAF報)

利用可能な観測所は地図上に黄色い丸と赤い丸で示す。

丸の上にカーソルを重ねると観測所名を参照できる。

次にクリックすると気象観測と天気予報を参照できる。

マップの切り替え:黒色「×」印の緑ボタンをクリックして拡大、「-」印の緑ボタンをクリックして縮小、緑色の三角印をクリックして隣りの地図に切り替え


METAR-TAF: